sensor_id;sensor_type;location;lat;lon;timestamp;P1;durP1;ratioP1;P2;durP2;ratioP2
22064;SDS011;11197;53.110;8.468;2023-02-24T00:01:40;7.38;;;1.88;;
22064;SDS011;11197;53.110;8.468;2023-02-24T00:04:08;10.60;;;2.15;;
22064;SDS011;11197;53.110;8.468;2023-02-24T00:06:39;9.35;;;1.90;;
22064;SDS011;11197;53.110;8.468;2023-02-24T00:11:36;15.25;;;2.63;;
22064;SDS011;11197;53.110;8.468;2023-02-24T00:14:04;11.05;;;1.77;;
22064;SDS011;11197;53.110;8.468;2023-02-24T00:16:31;8.38;;;1.80;;
22064;SDS011;11197;53.110;8.468;2023-02-24T00:18:59;7.47;;;1.60;;
22064;SDS011;11197;53.110;8.468;2023-02-24T00:21:25;14.95;;;2.05;;
22064;SDS011;11197;53.110;8.468;2023-02-24T00:23:52;12.40;;;2.35;;
22064;SDS011;11197;53.110;8.468;2023-02-24T00:26:18;11.00;;;1.90;;
22064;SDS011;11197;53.110;8.468;2023-02-24T00:28:45;10.77;;;1.75;;
22064;SDS011;11197;53.110;8.468;2023-02-24T00:31:15;7.72;;;1.50;;
22064;SDS011;11197;53.110;8.468;2023-02-24T00:33:42;7.93;;;1.40;;
22064;SDS011;11197;53.110;8.468;2023-02-24T00:38:37;7.90;;;1.40;;
22064;SDS011;11197;53.110;8.468;2023-02-24T00:41:11;13.40;;;1.55;;
22064;SDS011;11197;53.110;8.468;2023-02-24T00:43:41;9.68;;;1.50;;
22064;SDS011;11197;53.110;8.468;2023-02-24T00:46:12;8.05;;;1.38;;
22064;SDS011;11197;53.110;8.468;2023-02-24T00:48:43;10.35;;;1.60;;
22064;SDS011;11197;53.110;8.468;2023-02-24T00:51:16;8.60;;;1.58;;
22064;SDS011;11197;53.110;8.468;2023-02-24T00:53:50;9.45;;;1.98;;
22064;SDS011;11197;53.110;8.468;2023-02-24T00:56:24;10.85;;;1.50;;
22064;SDS011;11197;53.110;8.468;2023-02-24T00:58:53;7.35;;;1.42;;
22064;SDS011;11197;53.110;8.468;2023-02-24T01:01:20;5.07;;;1.17;;
22064;SDS011;11197;53.110;8.468;2023-02-24T01:03:50;12.32;;;1.40;;
22064;SDS011;11197;53.110;8.468;2023-02-24T01:06:21;7.10;;;1.08;;
22064;SDS011;11197;53.110;8.468;2023-02-24T01:08:49;6.63;;;1.17;;
22064;SDS011;11197;53.110;8.468;2023-02-24T01:11:20;9.13;;;1.50;;
22064;SDS011;11197;53.110;8.468;2023-02-24T01:14:10;12.20;;;1.70;;
22064;SDS011;11197;53.110;8.468;2023-02-24T01:16:41;13.90;;;1.45;;
22064;SDS011;11197;53.110;8.468;2023-02-24T01:19:08;7.15;;;1.50;;
22064;SDS011;11197;53.110;8.468;2023-02-24T01:21:35;7.63;;;1.30;;
22064;SDS011;11197;53.110;8.468;2023-02-24T01:24:01;8.20;;;1.58;;
22064;SDS011;11197;53.110;8.468;2023-02-24T01:26:27;11.80;;;1.63;;
22064;SDS011;11197;53.110;8.468;2023-02-24T01:28:55;8.27;;;1.55;;
22064;SDS011;11197;53.110;8.468;2023-02-24T01:31:21;9.65;;;1.42;;
22064;SDS011;11197;53.110;8.468;2023-02-24T01:33:50;6.28;;;1.30;;
22064;SDS011;11197;53.110;8.468;2023-02-24T01:36:17;8.73;;;1.20;;
22064;SDS011;11197;53.110;8.468;2023-02-24T01:38:45;10.23;;;1.50;;
22064;SDS011;11197;53.110;8.468;2023-02-24T01:41:18;6.80;;;1.23;;
22064;SDS011;11197;53.110;8.468;2023-02-24T01:46:35;8.40;;;1.33;;
22064;SDS011;11197;53.110;8.468;2023-02-24T01:54:16;10.70;;;1.70;;
22064;SDS011;11197;53.110;8.468;2023-02-24T01:56:47;7.55;;;1.10;;
22064;SDS011;11197;53.110;8.468;2023-02-24T01:59:14;9.07;;;1.52;;
22064;SDS011;11197;53.110;8.468;2023-02-24T02:01:40;8.23;;;1.45;;
22064;SDS011;11197;53.110;8.468;2023-02-24T02:04:22;10.20;;;1.88;;
22064;SDS011;11197;53.110;8.468;2023-02-24T02:07:11;8.18;;;1.30;;
22064;SDS011;11197;53.110;8.468;2023-02-24T02:09:39;8.18;;;1.63;;
22064;SDS011;11197;53.110;8.468;2023-02-24T02:12:06;11.35;;;1.50;;
22064;SDS011;11197;53.110;8.468;2023-02-24T02:14:33;10.13;;;1.38;;
22064;SDS011;11197;53.110;8.468;2023-02-24T02:36:36;7.45;;;1.40;;
22064;SDS011;11197;53.110;8.468;2023-02-24T02:39:41;7.47;;;1.47;;
22064;SDS011;11197;53.110;8.468;2023-02-24T02:42:29;7.93;;;1.00;;
22064;SDS011;11197;53.110;8.468;2023-02-24T02:52:50;8.07;;;1.08;;
22064;SDS011;11197;53.110;8.468;2023-02-24T02:58:17;7.22;;;1.23;;
22064;SDS011;11197;53.110;8.468;2023-02-24T03:00:55;9.13;;;1.40;;
22064;SDS011;11197;53.110;8.468;2023-02-24T03:03:43;8.13;;;1.40;;
22064;SDS011;11197;53.110;8.468;2023-02-24T03:06:14;5.88;;;1.15;;
22064;SDS011;11197;53.110;8.468;2023-02-24T03:08:43;6.90;;;1.40;;
22064;SDS011;11197;53.110;8.468;2023-02-24T03:11:16;8.93;;;1.38;;
22064;SDS011;11197;53.110;8.468;2023-02-24T03:13:44;9.90;;;1.55;;
22064;SDS011;11197;53.110;8.468;2023-02-24T03:16:15;4.85;;;1.33;;
22064;SDS011;11197;53.110;8.468;2023-02-24T03:18:44;7.25;;;1.30;;
22064;SDS011;11197;53.110;8.468;2023-02-24T03:21:27;6.43;;;1.30;;
22064;SDS011;11197;53.110;8.468;2023-02-24T03:24:04;4.70;;;1.30;;
22064;SDS011;11197;53.110;8.468;2023-02-24T03:29:06;6.97;;;1.70;;
22064;SDS011;11197;53.110;8.468;2023-02-24T03:31:53;7.90;;;1.10;;
22064;SDS011;11197;53.110;8.468;2023-02-24T03:34:32;4.57;;;1.00;;
22064;SDS011;11197;53.110;8.468;2023-02-24T03:37:05;7.00;;;1.48;;
22064;SDS011;11197;53.110;8.468;2023-02-24T03:39:31;6.95;;;1.08;;
22064;SDS011;11197;53.110;8.468;2023-02-24T03:42:13;8.10;;;1.20;;
22064;SDS011;11197;53.110;8.468;2023-02-24T03:44:45;6.68;;;1.25;;
22064;SDS011;11197;53.110;8.468;2023-02-24T03:47:13;9.45;;;1.50;;
22064;SDS011;11197;53.110;8.468;2023-02-24T03:49:41;5.85;;;1.20;;
22064;SDS011;11197;53.110;8.468;2023-02-24T04:06:57;6.95;;;1.20;;
22064;SDS011;11197;53.110;8.468;2023-02-24T04:15:15;6.30;;;1.20;;
22064;SDS011;11197;53.110;8.468;2023-02-24T04:18:19;7.07;;;1.15;;
22064;SDS011;11197;53.110;8.468;2023-02-24T04:20:48;7.18;;;1.30;;
22064;SDS011;11197;53.110;8.468;2023-02-24T04:23:21;8.18;;;1.50;;
22064;SDS011;11197;53.110;8.468;2023-02-24T04:25:52;7.40;;;1.23;;
22064;SDS011;11197;53.110;8.468;2023-02-24T04:28:21;7.82;;;1.30;;
22064;SDS011;11197;53.110;8.468;2023-02-24T04:30:51;9.35;;;1.55;;
22064;SDS011;11197;53.110;8.468;2023-02-24T04:33:21;8.73;;;1.30;;
22064;SDS011;11197;53.110;8.468;2023-02-24T04:35:49;7.85;;;1.23;;
22064;SDS011;11197;53.110;8.468;2023-02-24T04:38:18;5.60;;;1.10;;
22064;SDS011;11197;53.110;8.468;2023-02-24T04:40:44;7.65;;;1.65;;
22064;SDS011;11197;53.110;8.468;2023-02-24T04:43:10;6.20;;;1.38;;
22064;SDS011;11197;53.110;8.468;2023-02-24T04:45:37;7.05;;;2.20;;
22064;SDS011;11197;53.110;8.468;2023-02-24T04:48:04;6.78;;;2.00;;
22064;SDS011;11197;53.110;8.468;2023-02-24T04:50:36;7.80;;;2.10;;
22064;SDS011;11197;53.110;8.468;2023-02-24T04:53:05;6.88;;;2.17;;
22064;SDS011;11197;53.110;8.468;2023-02-24T04:55:40;10.82;;;2.45;;
22064;SDS011;11197;53.110;8.468;2023-02-24T04:58:14;10.65;;;2.63;;
22064;SDS011;11197;53.110;8.468;2023-02-24T05:00:45;11.70;;;3.00;;
22064;SDS011;11197;53.110;8.468;2023-02-24T05:03:13;8.85;;;2.58;;
22064;SDS011;11197;53.110;8.468;2023-02-24T05:05:52;12.32;;;3.78;;
22064;SDS011;11197;53.110;8.468;2023-02-24T05:08:25;13.07;;;3.97;;
22064;SDS011;11197;53.110;8.468;2023-02-24T05:10:52;7.45;;;2.67;;
22064;SDS011;11197;53.110;8.468;2023-02-24T05:13:23;10.10;;;3.70;;
22064;SDS011;11197;53.110;8.468;2023-02-24T05:15:52;22.50;;;8.20;;
22064;SDS011;11197;53.110;8.468;2023-02-24T05:18:28;13.95;;;4.78;;
22064;SDS011;11197;53.110;8.468;2023-02-24T05:21:03;16.13;;;3.70;;
22064;SDS011;11197;53.110;8.468;2023-02-24T05:23:50;9.90;;;2.40;;
22064;SDS011;11197;53.110;8.468;2023-02-24T05:26:18;6.38;;;1.73;;
22064;SDS011;11197;53.110;8.468;2023-02-24T05:28:46;6.32;;;1.63;;
22064;SDS011;11197;53.110;8.468;2023-02-24T05:31:17;13.13;;;1.70;;
22064;SDS011;11197;53.110;8.468;2023-02-24T05:33:49;7.63;;;1.60;;
22064;SDS011;11197;53.110;8.468;2023-02-24T05:36:22;8.00;;;1.70;;
22064;SDS011;11197;53.110;8.468;2023-02-24T05:38:50;7.15;;;1.50;;
22064;SDS011;11197;53.110;8.468;2023-02-24T05:41:39;8.38;;;1.48;;
22064;SDS011;11197;53.110;8.468;2023-02-24T05:44:07;7.47;;;1.50;;
22064;SDS011;11197;53.110;8.468;2023-02-24T05:46:37;8.77;;;1.90;;
22064;SDS011;11197;53.110;8.468;2023-02-24T05:49:28;6.43;;;1.40;;
22064;SDS011;11197;53.110;8.468;2023-02-24T05:51:57;10.18;;;1.63;;
22064;SDS011;11197;53.110;8.468;2023-02-24T05:54:26;9.40;;;1.48;;
22064;SDS011;11197;53.110;8.468;2023-02-24T05:56:55;7.65;;;1.70;;
22064;SDS011;11197;53.110;8.468;2023-02-24T05:59:24;5.57;;;1.08;;
22064;SDS011;11197;53.110;8.468;2023-02-24T06:01:57;7.53;;;1.50;;
22064;SDS011;11197;53.110;8.468;2023-02-24T06:04:34;7.60;;;1.23;;
22064;SDS011;11197;53.110;8.468;2023-02-24T06:07:11;10.02;;;1.90;;
22064;SDS011;11197;53.110;8.468;2023-02-24T06:09:46;6.90;;;1.55;;
22064;SDS011;11197;53.110;8.468;2023-02-24T06:12:17;7.90;;;1.38;;
22064;SDS011;11197;53.110;8.468;2023-02-24T06:14:45;7.43;;;1.48;;
22064;SDS011;11197;53.110;8.468;2023-02-24T06:17:12;6.60;;;1.40;;
22064;SDS011;11197;53.110;8.468;2023-02-24T06:19:41;7.28;;;1.38;;
22064;SDS011;11197;53.110;8.468;2023-02-24T06:22:10;7.47;;;1.38;;
22064;SDS011;11197;53.110;8.468;2023-02-24T06:24:38;7.47;;;1.40;;
22064;SDS011;11197;53.110;8.468;2023-02-24T06:27:09;6.18;;;1.23;;
22064;SDS011;11197;53.110;8.468;2023-02-24T06:29:42;8.30;;;1.20;;
22064;SDS011;11197;53.110;8.468;2023-02-24T06:32:09;9.25;;;1.38;;
22064;SDS011;11197;53.110;8.468;2023-02-24T06:34:35;6.90;;;1.30;;
22064;SDS011;11197;53.110;8.468;2023-02-24T06:37:03;9.63;;;1.33;;
22064;SDS011;11197;53.110;8.468;2023-02-24T06:39:31;6.38;;;1.60;;
22064;SDS011;11197;53.110;8.468;2023-02-24T06:41:58;5.50;;;1.42;;
22064;SDS011;11197;53.110;8.468;2023-02-24T06:44:31;14.27;;;3.45;;
22064;SDS011;11197;53.110;8.468;2023-02-24T06:46:58;6.97;;;2.08;;
22064;SDS011;11197;53.110;8.468;2023-02-24T06:49:24;8.57;;;2.67;;
22064;SDS011;11197;53.110;8.468;2023-02-24T06:51:54;14.40;;;2.03;;
22064;SDS011;11197;53.110;8.468;2023-02-24T06:54:25;7.43;;;1.50;;
22064;SDS011;11197;53.110;8.468;2023-02-24T06:56:55;10.38;;;1.80;;
22064;SDS011;11197;53.110;8.468;2023-02-24T06:59:24;6.30;;;1.50;;
22064;SDS011;11197;53.110;8.468;2023-02-24T07:01:53;8.20;;;1.50;;
22064;SDS011;11197;53.110;8.468;2023-02-24T07:04:20;13.10;;;1.80;;
22064;SDS011;11197;53.110;8.468;2023-02-24T07:06:49;8.30;;;1.80;;
22064;SDS011;11197;53.110;8.468;2023-02-24T07:09:19;8.88;;;1.63;;
22064;SDS011;11197;53.110;8.468;2023-02-24T07:11:47;10.38;;;1.90;;
22064;SDS011;11197;53.110;8.468;2023-02-24T07:14:20;9.35;;;1.77;;
22064;SDS011;11197;53.110;8.468;2023-02-24T07:16:48;6.07;;;1.30;;
22064;SDS011;11197;53.110;8.468;2023-02-24T07:19:18;10.20;;;1.90;;
22064;SDS011;11197;53.110;8.468;2023-02-24T07:21:46;7.43;;;1.42;;
22064;SDS011;11197;53.110;8.468;2023-02-24T07:24:21;8.33;;;1.70;;
22064;SDS011;11197;53.110;8.468;2023-02-24T07:26:56;8.07;;;1.40;;
22064;SDS011;11197;53.110;8.468;2023-02-24T07:29:25;7.72;;;1.38;;
22064;SDS011;11197;53.110;8.468;2023-02-24T07:31:52;10.32;;;1.67;;
22064;SDS011;11197;53.110;8.468;2023-02-24T07:34:21;10.52;;;1.92;;
22064;SDS011;11197;53.110;8.468;2023-02-24T07:36:50;6.90;;;1.60;;
22064;SDS011;11197;53.110;8.468;2023-02-24T07:39:16;14.85;;;2.03;;
22064;SDS011;11197;53.110;8.468;2023-02-24T07:41:43;11.18;;;2.08;;
22064;SDS011;11197;53.110;8.468;2023-02-24T07:44:11;12.10;;;1.67;;
22064;SDS011;11197;53.110;8.468;2023-02-24T07:46:38;5.85;;;1.52;;
22064;SDS011;11197;53.110;8.468;2023-02-24T07:49:05;7.90;;;1.80;;
22064;SDS011;11197;53.110;8.468;2023-02-24T07:51:34;6.47;;;1.30;;
22064;SDS011;11197;53.110;8.468;2023-02-24T07:54:00;9.82;;;1.88;;
22064;SDS011;11197;53.110;8.468;2023-02-24T07:56:28;10.98;;;1.85;;
22064;SDS011;11197;53.110;8.468;2023-02-24T07:59:01;11.10;;;2.20;;
22064;SDS011;11197;53.110;8.468;2023-02-24T08:01:32;9.70;;;2.00;;
22064;SDS011;11197;53.110;8.468;2023-02-24T08:04:03;11.45;;;2.03;;
22064;SDS011;11197;53.110;8.468;2023-02-24T08:06:36;8.10;;;1.60;;
22064;SDS011;11197;53.110;8.468;2023-02-24T08:09:04;8.05;;;1.65;;
22064;SDS011;11197;53.110;8.468;2023-02-24T08:11:49;9.23;;;2.00;;
22064;SDS011;11197;53.110;8.468;2023-02-24T08:14:21;12.55;;;3.90;;
22064;SDS011;11197;53.110;8.468;2023-02-24T08:16:51;29.95;;;15.10;;
22064;SDS011;11197;53.110;8.468;2023-02-24T08:19:24;15.25;;;7.22;;
22064;SDS011;11197;53.110;8.468;2023-02-24T08:22:03;14.88;;;3.67;;
22064;SDS011;11197;53.110;8.468;2023-02-24T08:24:56;7.88;;;2.22;;
22064;SDS011;11197;53.110;8.468;2023-02-24T08:27:30;10.77;;;2.40;;
22064;SDS011;11197;53.110;8.468;2023-02-24T08:29:58;7.07;;;1.80;;
22064;SDS011;11197;53.110;8.468;2023-02-24T08:35:03;13.93;;;3.75;;
22064;SDS011;11197;53.110;8.468;2023-02-24T08:37:38;8.57;;;2.92;;
22064;SDS011;11197;53.110;8.468;2023-02-24T08:40:14;8.57;;;2.38;;
22064;SDS011;11197;53.110;8.468;2023-02-24T08:45:42;9.13;;;3.10;;
22064;SDS011;11197;53.110;8.468;2023-02-24T08:48:13;10.50;;;3.60;;
22064;SDS011;11197;53.110;8.468;2023-02-24T08:50:53;9.63;;;3.15;;
22064;SDS011;11197;53.110;8.468;2023-02-24T08:53:21;10.90;;;3.88;;
22064;SDS011;11197;53.110;8.468;2023-02-24T08:55:52;11.50;;;4.57;;
22064;SDS011;11197;53.110;8.468;2023-02-24T08:58:18;11.70;;;5.05;;
22064;SDS011;11197;53.110;8.468;2023-02-24T09:00:55;20.80;;;7.85;;
22064;SDS011;11197;53.110;8.468;2023-02-24T09:03:26;14.50;;;4.95;;
22064;SDS011;11197;53.110;8.468;2023-02-24T09:06:03;17.23;;;7.15;;
22064;SDS011;11197;53.110;8.468;2023-02-24T09:08:33;12.90;;;5.13;;
22064;SDS011;11197;53.110;8.468;2023-02-24T09:11:03;9.57;;;4.40;;
22064;SDS011;11197;53.110;8.468;2023-02-24T09:13:38;11.85;;;4.82;;
22064;SDS011;11197;53.110;8.468;2023-02-24T09:16:16;17.20;;;5.80;;
22064;SDS011;11197;53.110;8.468;2023-02-24T09:18:43;13.05;;;5.70;;
22064;SDS011;11197;53.110;8.468;2023-02-24T09:21:13;10.70;;;4.70;;
22064;SDS011;11197;53.110;8.468;2023-02-24T09:23:58;12.75;;;4.75;;
22064;SDS011;11197;53.110;8.468;2023-02-24T09:26:27;17.50;;;6.72;;
22064;SDS011;11197;53.110;8.468;2023-02-24T09:28:57;11.23;;;5.00;;
22064;SDS011;11197;53.110;8.468;2023-02-24T09:31:23;10.38;;;3.33;;
22064;SDS011;11197;53.110;8.468;2023-02-24T09:34:06;10.23;;;3.42;;
22064;SDS011;11197;53.110;8.468;2023-02-24T09:36:34;8.85;;;3.47;;
22064;SDS011;11197;53.110;8.468;2023-02-24T09:39:09;9.68;;;3.75;;
22064;SDS011;11197;53.110;8.468;2023-02-24T09:47:23;7.97;;;3.78;;
22064;SDS011;11197;53.110;8.468;2023-02-24T09:53:16;7.38;;;3.40;;
22064;SDS011;11197;53.110;8.468;2023-02-24T10:01:30;12.05;;;4.10;;
22064;SDS011;11197;53.110;8.468;2023-02-24T10:07:26;7.65;;;3.60;;
22064;SDS011;11197;53.110;8.468;2023-02-24T10:12:55;8.95;;;3.65;;
22064;SDS011;11197;53.110;8.468;2023-02-24T10:15:27;6.60;;;3.42;;
22064;SDS011;11197;53.110;8.468;2023-02-24T10:18:32;9.70;;;3.90;;
22064;SDS011;11197;53.110;8.468;2023-02-24T10:21:33;7.45;;;3.67;;
22064;SDS011;11197;53.110;8.468;2023-02-24T10:29:43;10.10;;;3.58;;
22064;SDS011;11197;53.110;8.468;2023-02-24T10:32:19;8.93;;;4.00;;
22064;SDS011;11197;53.110;8.468;2023-02-24T10:35:12;10.23;;;3.63;;
22064;SDS011;11197;53.110;8.468;2023-02-24T10:37:40;9.18;;;3.65;;
22064;SDS011;11197;53.110;8.468;2023-02-24T10:40:07;8.30;;;3.95;;
22064;SDS011;11197;53.110;8.468;2023-02-24T10:42:35;8.25;;;4.07;;
22064;SDS011;11197;53.110;8.468;2023-02-24T10:45:13;9.10;;;3.88;;
22064;SDS011;11197;53.110;8.468;2023-02-24T10:47:51;7.60;;;4.47;;
22064;SDS011;11197;53.110;8.468;2023-02-24T10:52:53;7.20;;;3.88;;
22064;SDS011;11197;53.110;8.468;2023-02-24T10:55:32;6.88;;;4.03;;
22064;SDS011;11197;53.110;8.468;2023-02-24T10:58:29;11.18;;;4.30;;
22064;SDS011;11197;53.110;8.468;2023-02-24T11:01:13;7.87;;;4.13;;
22064;SDS011;11197;53.110;8.468;2023-02-24T11:03:54;11.15;;;4.20;;
22064;SDS011;11197;53.110;8.468;2023-02-24T11:06:27;10.63;;;4.50;;
22064;SDS011;11197;53.110;8.468;2023-02-24T11:11:46;8.70;;;4.60;;
22064;SDS011;11197;53.110;8.468;2023-02-24T11:14:38;7.68;;;4.53;;
22064;SDS011;11197;53.110;8.468;2023-02-24T11:17:44;8.05;;;4.05;;
22064;SDS011;11197;53.110;8.468;2023-02-24T11:20:39;8.18;;;4.47;;
22064;SDS011;11197;53.110;8.468;2023-02-24T11:23:06;10.15;;;4.30;;
22064;SDS011;11197;53.110;8.468;2023-02-24T11:33:41;8.68;;;5.13;;
22064;SDS011;11197;53.110;8.468;2023-02-24T11:42:00;9.70;;;5.70;;
22064;SDS011;11197;53.110;8.468;2023-02-24T11:44:35;10.05;;;5.55;;
22064;SDS011;11197;53.110;8.468;2023-02-24T11:47:15;10.15;;;5.28;;
22064;SDS011;11197;53.110;8.468;2023-02-24T11:49:50;8.45;;;5.15;;
22064;SDS011;11197;53.110;8.468;2023-02-24T11:52:37;10.02;;;4.75;;
22064;SDS011;11197;53.110;8.468;2023-02-24T11:55:13;10.90;;;5.53;;
22064;SDS011;11197;53.110;8.468;2023-02-24T11:57:52;11.02;;;6.60;;
22064;SDS011;11197;53.110;8.468;2023-02-24T12:00:22;12.20;;;5.97;;
22064;SDS011;11197;53.110;8.468;2023-02-24T12:02:59;11.23;;;6.57;;
22064;SDS011;11197;53.110;8.468;2023-02-24T12:05:54;11.10;;;6.55;;
22064;SDS011;11197;53.110;8.468;2023-02-24T12:08:30;12.52;;;6.93;;
22064;SDS011;11197;53.110;8.468;2023-02-24T12:11:05;10.82;;;6.40;;
22064;SDS011;11197;53.110;8.468;2023-02-24T12:16:42;15.02;;;6.00;;
22064;SDS011;11197;53.110;8.468;2023-02-24T12:19:16;8.80;;;5.50;;
22064;SDS011;11197;53.110;8.468;2023-02-24T12:21:52;12.25;;;6.13;;
22064;SDS011;11197;53.110;8.468;2023-02-24T12:24:23;11.63;;;5.45;;
22064;SDS011;11197;53.110;8.468;2023-02-24T12:27:03;12.07;;;5.72;;
22064;SDS011;11197;53.110;8.468;2023-02-24T12:41:32;16.67;;;6.40;;
22064;SDS011;11197;53.110;8.468;2023-02-24T12:47:08;11.65;;;6.18;;
22064;SDS011;11197;53.110;8.468;2023-02-24T12:52:22;12.52;;;6.63;;
22064;SDS011;11197;53.110;8.468;2023-02-24T12:55:16;14.90;;;7.25;;
22064;SDS011;11197;53.110;8.468;2023-02-24T12:58:15;12.23;;;6.82;;
22064;SDS011;11197;53.110;8.468;2023-02-24T13:09:19;13.90;;;6.15;;
22064;SDS011;11197;53.110;8.468;2023-02-24T13:15:16;14.50;;;5.78;;
22064;SDS011;11197;53.110;8.468;2023-02-24T13:17:45;16.35;;;5.88;;
22064;SDS011;11197;53.110;8.468;2023-02-24T13:20:23;16.45;;;5.25;;
22064;SDS011;11197;53.110;8.468;2023-02-24T13:23:29;15.65;;;4.40;;
22064;SDS011;11197;53.110;8.468;2023-02-24T13:25:56;14.50;;;3.50;;
22064;SDS011;11197;53.110;8.468;2023-02-24T13:31:00;14.68;;;3.40;;
22064;SDS011;11197;53.110;8.468;2023-02-24T13:33:30;18.48;;;2.70;;
22064;SDS011;11197;53.110;8.468;2023-02-24T13:41:45;15.48;;;2.33;;
22064;SDS011;11197;53.110;8.468;2023-02-24T13:46:57;16.75;;;2.22;;
22064;SDS011;11197;53.110;8.468;2023-02-24T13:52:23;15.90;;;2.30;;
22064;SDS011;11197;53.110;8.468;2023-02-24T14:03:20;12.40;;;1.83;;
22064;SDS011;11197;53.110;8.468;2023-02-24T14:05:50;17.35;;;1.90;;
22064;SDS011;11197;53.110;8.468;2023-02-24T14:08:22;11.00;;;1.88;;
22064;SDS011;11197;53.110;8.468;2023-02-24T14:11:10;13.48;;;2.20;;
22064;SDS011;11197;53.110;8.468;2023-02-24T14:13:40;11.45;;;2.05;;
22064;SDS011;11197;53.110;8.468;2023-02-24T14:18:42;9.02;;;1.85;;
22064;SDS011;11197;53.110;8.468;2023-02-24T14:21:21;10.77;;;1.83;;
22064;SDS011;11197;53.110;8.468;2023-02-24T14:26:25;13.25;;;1.73;;
22064;SDS011;11197;53.110;8.468;2023-02-24T14:28:56;13.07;;;1.80;;
22064;SDS011;11197;53.110;8.468;2023-02-24T14:31:27;10.43;;;1.65;;
22064;SDS011;11197;53.110;8.468;2023-02-24T14:33:59;9.80;;;1.35;;
22064;SDS011;11197;53.110;8.468;2023-02-24T14:36:38;12.45;;;1.80;;
22064;SDS011;11197;53.110;8.468;2023-02-24T14:39:30;8.73;;;1.45;;
22064;SDS011;11197;53.110;8.468;2023-02-24T14:44:39;8.38;;;1.40;;
22064;SDS011;11197;53.110;8.468;2023-02-24T14:47:24;7.13;;;1.13;;
22064;SDS011;11197;53.110;8.468;2023-02-24T14:49:54;7.25;;;0.93;;
22064;SDS011;11197;53.110;8.468;2023-02-24T14:55:07;9.00;;;1.10;;
22064;SDS011;11197;53.110;8.468;2023-02-24T14:57:54;7.38;;;1.20;;
22064;SDS011;11197;53.110;8.468;2023-02-24T15:00:22;5.22;;;0.93;;
22064;SDS011;11197;53.110;8.468;2023-02-24T15:05:22;7.10;;;1.00;;
22064;SDS011;11197;53.110;8.468;2023-02-24T15:07:48;7.95;;;1.13;;
22064;SDS011;11197;53.110;8.468;2023-02-24T15:10:22;8.70;;;1.00;;
22064;SDS011;11197;53.110;8.468;2023-02-24T15:12:53;5.20;;;0.80;;
22064;SDS011;11197;53.110;8.468;2023-02-24T15:15:24;6.53;;;1.00;;
22064;SDS011;11197;53.110;8.468;2023-02-24T15:17:53;3.67;;;0.88;;
22064;SDS011;11197;53.110;8.468;2023-02-24T15:22:51;4.30;;;0.88;;
22064;SDS011;11197;53.110;8.468;2023-02-24T15:25:19;4.97;;;0.98;;
22064;SDS011;11197;53.110;8.468;2023-02-24T15:33:00;5.80;;;1.30;;
22064;SDS011;11197;53.110;8.468;2023-02-24T15:35:30;3.50;;;0.60;;
22064;SDS011;11197;53.110;8.468;2023-02-24T15:37:57;6.05;;;1.02;;
22064;SDS011;11197;53.110;8.468;2023-02-24T15:40:25;5.97;;;1.10;;
22064;SDS011;11197;53.110;8.468;2023-02-24T15:43:10;6.00;;;1.10;;
22064;SDS011;11197;53.110;8.468;2023-02-24T15:45:42;3.63;;;0.75;;
22064;SDS011;11197;53.110;8.468;2023-02-24T15:48:18;4.85;;;0.90;;
22064;SDS011;11197;53.110;8.468;2023-02-24T15:50:46;3.25;;;0.60;;
22064;SDS011;11197;53.110;8.468;2023-02-24T15:53:12;5.90;;;0.90;;
22064;SDS011;11197;53.110;8.468;2023-02-24T15:55:42;7.00;;;1.15;;
22064;SDS011;11197;53.110;8.468;2023-02-24T15:58:16;6.10;;;1.23;;
22064;SDS011;11197;53.110;8.468;2023-02-24T16:00:44;5.35;;;1.10;;
22064;SDS011;11197;53.110;8.468;2023-02-24T16:03:13;6.43;;;0.90;;
22064;SDS011;11197;53.110;8.468;2023-02-24T16:05:38;7.82;;;1.08;;
22064;SDS011;11197;53.110;8.468;2023-02-24T16:08:17;6.03;;;1.20;;
22064;SDS011;11197;53.110;8.468;2023-02-24T16:10:43;6.65;;;1.40;;
22064;SDS011;11197;53.110;8.468;2023-02-24T16:13:17;8.55;;;1.58;;
22064;SDS011;11197;53.110;8.468;2023-02-24T16:15:45;7.57;;;1.40;;
22064;SDS011;11197;53.110;8.468;2023-02-24T16:18:13;12.98;;;1.80;;
22064;SDS011;11197;53.110;8.468;2023-02-24T16:20:43;11.10;;;2.00;;
22064;SDS011;11197;53.110;8.468;2023-02-24T16:23:13;11.23;;;1.48;;
22064;SDS011;11197;53.110;8.468;2023-02-24T16:25:40;9.93;;;1.38;;
22064;SDS011;11197;53.110;8.468;2023-02-24T16:28:14;8.30;;;1.33;;
22064;SDS011;11197;53.110;8.468;2023-02-24T16:30:42;8.57;;;1.75;;
22064;SDS011;11197;53.110;8.468;2023-02-24T16:33:12;11.63;;;1.88;;
22064;SDS011;11197;53.110;8.468;2023-02-24T16:35:39;11.10;;;2.03;;
22064;SDS011;11197;53.110;8.468;2023-02-24T16:38:14;7.85;;;1.50;;
22064;SDS011;11197;53.110;8.468;2023-02-24T16:40:42;10.77;;;1.70;;
22064;SDS011;11197;53.110;8.468;2023-02-24T16:43:09;16.83;;;2.13;;
22064;SDS011;11197;53.110;8.468;2023-02-24T16:45:36;15.77;;;2.40;;
22064;SDS011;11197;53.110;8.468;2023-02-24T16:48:06;13.02;;;2.10;;
22064;SDS011;11197;53.110;8.468;2023-02-24T16:50:38;12.93;;;2.28;;
22064;SDS011;11197;53.110;8.468;2023-02-24T16:53:06;13.25;;;2.15;;
22064;SDS011;11197;53.110;8.468;2023-02-24T16:55:32;15.60;;;2.40;;
22064;SDS011;11197;53.110;8.468;2023-02-24T16:57:59;11.55;;;1.90;;
22064;SDS011;11197;53.110;8.468;2023-02-24T17:00:25;10.88;;;2.08;;
22064;SDS011;11197;53.110;8.468;2023-02-24T17:02:51;13.73;;;2.08;;
22064;SDS011;11197;53.110;8.468;2023-02-24T17:05:19;14.23;;;2.05;;
22064;SDS011;11197;53.110;8.468;2023-02-24T17:07:47;16.40;;;2.50;;
22064;SDS011;11197;53.110;8.468;2023-02-24T17:10:15;16.88;;;2.22;;
22064;SDS011;11197;53.110;8.468;2023-02-24T17:12:42;17.38;;;2.90;;
22064;SDS011;11197;53.110;8.468;2023-02-24T17:15:11;16.58;;;2.13;;
22064;SDS011;11197;53.110;8.468;2023-02-24T17:17:42;20.25;;;2.15;;
22064;SDS011;11197;53.110;8.468;2023-02-24T17:20:12;16.10;;;2.65;;
22064;SDS011;11197;53.110;8.468;2023-02-24T17:22:41;16.23;;;2.20;;
22064;SDS011;11197;53.110;8.468;2023-02-24T17:25:14;18.98;;;2.92;;
22064;SDS011;11197;53.110;8.468;2023-02-24T17:27:42;17.25;;;2.50;;
22064;SDS011;11197;53.110;8.468;2023-02-24T17:30:10;18.33;;;2.60;;
22064;SDS011;11197;53.110;8.468;2023-02-24T17:32:41;16.42;;;2.47;;
22064;SDS011;11197;53.110;8.468;2023-02-24T17:35:07;15.18;;;2.60;;
22064;SDS011;11197;53.110;8.468;2023-02-24T17:37:34;21.77;;;3.00;;
22064;SDS011;11197;53.110;8.468;2023-02-24T17:40:00;21.58;;;3.35;;
22064;SDS011;11197;53.110;8.468;2023-02-24T17:42:26;20.83;;;3.13;;
22064;SDS011;11197;53.110;8.468;2023-02-24T17:44:52;16.45;;;3.33;;
22064;SDS011;11197;53.110;8.468;2023-02-24T17:47:18;21.33;;;3.30;;
22064;SDS011;11197;53.110;8.468;2023-02-24T17:49:43;18.30;;;2.97;;
22064;SDS011;11197;53.110;8.468;2023-02-24T17:52:09;19.02;;;2.70;;
22064;SDS011;11197;53.110;8.468;2023-02-24T17:54:35;15.00;;;2.30;;
22064;SDS011;11197;53.110;8.468;2023-02-24T17:57:01;18.38;;;2.88;;
22064;SDS011;11197;53.110;8.468;2023-02-24T17:59:27;24.25;;;3.33;;
22064;SDS011;11197;53.110;8.468;2023-02-24T18:01:53;19.98;;;3.13;;
22064;SDS011;11197;53.110;8.468;2023-02-24T18:04:19;20.45;;;3.53;;
22064;SDS011;11197;53.110;8.468;2023-02-24T18:06:45;18.05;;;2.90;;
22064;SDS011;11197;53.110;8.468;2023-02-24T18:09:11;19.73;;;3.17;;
22064;SDS011;11197;53.110;8.468;2023-02-24T18:11:37;19.00;;;3.25;;
22064;SDS011;11197;53.110;8.468;2023-02-24T18:14:03;23.00;;;4.05;;
22064;SDS011;11197;53.110;8.468;2023-02-24T18:16:29;21.05;;;3.25;;
22064;SDS011;11197;53.110;8.468;2023-02-24T18:18:55;22.50;;;3.28;;
22064;SDS011;11197;53.110;8.468;2023-02-24T18:21:21;24.70;;;3.50;;
22064;SDS011;11197;53.110;8.468;2023-02-24T18:23:48;27.98;;;3.13;;